createdAt,value
2023-04-17T00:00:16.598Z,16.50
2023-04-17T00:05:23.254Z,16.50
2023-04-17T00:10:26.694Z,16.40
2023-04-17T00:15:31.748Z,16.40
2023-04-17T00:20:35.062Z,16.40
2023-04-17T00:25:38.554Z,16.30
2023-04-17T00:30:43.270Z,16.30
2023-04-17T00:35:46.546Z,16.20
2023-04-17T00:40:51.855Z,16.20
2023-04-17T00:45:56.802Z,16.10
2023-04-17T00:51:02.348Z,16.10
2023-04-17T00:56:07.820Z,16.00
2023-04-17T01:01:12.647Z,16.10
2023-04-17T01:06:16.157Z,16.00
2023-04-17T01:11:19.482Z,16.00
2023-04-17T01:16:24.559Z,16.00
2023-04-17T01:21:28.264Z,16.00
2023-04-17T01:26:33.694Z,16.00
2023-04-17T01:31:37.219Z,16.00
2023-04-17T01:36:41.485Z,16.00
2023-04-17T01:41:46.293Z,16.00
2023-04-17T01:46:49.968Z,16.00
2023-04-17T01:51:53.279Z,16.00
2023-04-17T01:56:58.310Z,16.00
2023-04-17T02:02:01.949Z,15.90
2023-04-17T02:07:05.189Z,15.90
2023-04-17T02:12:09.987Z,15.90
2023-04-17T02:17:13.275Z,15.80
2023-04-17T02:22:18.543Z,15.90
2023-04-17T02:27:23.173Z,15.90
2023-04-17T02:32:26.768Z,16.00
2023-04-17T02:37:30.507Z,16.00
2023-04-17T02:42:35.485Z,16.10
2023-04-17T02:47:39.883Z,16.10
2023-04-17T02:52:43.578Z,16.10
2023-04-17T02:57:48.374Z,16.10
2023-04-17T03:02:52.529Z,16.10
2023-04-17T03:07:56.060Z,16.10
2023-04-17T03:13:01.082Z,16.20
2023-04-17T03:18:04.473Z,16.20
2023-04-17T03:23:07.748Z,16.20
2023-04-17T03:28:12.393Z,16.10
2023-04-17T03:33:16.342Z,16.10
2023-04-17T03:38:19.686Z,16.10
2023-04-17T03:43:25.049Z,16.10
2023-04-17T03:48:29.368Z,16.10
2023-04-17T03:53:33.004Z,16.00
2023-04-17T03:58:40.563Z,16.00
2023-04-17T04:03:46.617Z,15.90
2023-04-17T04:08:50.738Z,15.90
2023-04-17T04:13:56.401Z,15.90
2023-04-17T04:19:03.160Z,15.90
2023-04-17T04:24:06.811Z,15.90
2023-04-17T04:29:14.011Z,16.00
2023-04-17T04:34:38.826Z,15.90
2023-04-17T04:39:43.411Z,15.90
2023-04-17T04:44:52.532Z,15.90
2023-04-17T04:49:56.531Z,15.90
2023-04-17T04:55:01.926Z,15.90
2023-04-17T05:00:10.447Z,15.90
2023-04-17T05:05:20.129Z,16.00
2023-04-17T05:10:23.732Z,16.10
2023-04-17T05:15:33.508Z,16.10
2023-04-17T05:20:37.819Z,16.20
2023-04-17T05:25:42.116Z,16.20
2023-04-17T05:30:47.100Z,16.30
2023-04-17T05:35:56.373Z,16.30
2023-04-17T05:41:01.777Z,16.40
2023-04-17T05:46:06.776Z,16.50
2023-04-17T05:51:10.249Z,16.60
2023-04-17T05:56:14.294Z,16.70
2023-04-17T06:01:22.396Z,16.80
2023-04-17T06:06:29.159Z,16.90
2023-04-17T06:11:32.992Z,16.90
2023-04-17T06:16:37.677Z,17.00
2023-04-17T06:21:41.305Z,17.00
2023-04-17T06:26:44.572Z,17.10
2023-04-17T06:31:49.404Z,17.10
2023-04-17T06:36:56.659Z,17.10
2023-04-17T06:42:00.118Z,17.20
2023-04-17T06:47:06.012Z,17.30
2023-04-17T06:52:09.313Z,17.30
2023-04-17T06:57:12.683Z,17.30
2023-04-17T07:02:17.582Z,17.40
2023-04-17T07:07:21.224Z,17.40
2023-04-17T07:12:24.775Z,17.50
2023-04-17T07:17:29.530Z,17.90
2023-04-17T07:22:33.482Z,18.40
2023-04-17T07:27:38.539Z,18.80
2023-04-17T07:32:43.485Z,19.00
2023-04-17T07:37:46.779Z,19.20
2023-04-17T07:42:50.010Z,19.30
2023-04-17T07:47:54.603Z,19.30
2023-04-17T07:52:58.241Z,19.30
2023-04-17T07:58:04.326Z,19.30
2023-04-17T08:03:09.700Z,19.30
2023-04-17T08:08:13.076Z,19.40
2023-04-17T08:13:16.384Z,19.40
2023-04-17T08:18:21.050Z,19.50
2023-04-17T08:23:24.312Z,19.60
2023-04-17T08:28:27.889Z,19.60
2023-04-17T08:33:32.542Z,19.80
2023-04-17T08:38:35.825Z,19.90
2023-04-17T08:43:39.262Z,20.00
2023-04-17T08:48:43.870Z,20.00
2023-04-17T08:53:47.353Z,20.20
2023-04-17T08:58:50.546Z,20.30
2023-04-17T09:03:57.248Z,20.50
2023-04-17T09:09:02.051Z,20.60
2023-04-17T09:14:05.931Z,20.80
2023-04-17T09:19:11.070Z,21.00
2023-04-17T09:24:14.692Z,21.20
2023-04-17T09:29:17.900Z,21.30
2023-04-17T09:34:22.754Z,21.50
2023-04-17T09:39:26.142Z,21.70
2023-04-17T09:44:30.698Z,21.80
2023-04-17T09:49:42.293Z,21.90
2023-04-17T09:54:51.247Z,22.00
2023-04-17T09:59:59.605Z,22.20
2023-04-17T10:05:08.759Z,22.30
2023-04-17T10:10:14.335Z,22.40
2023-04-17T10:15:18.650Z,22.50
2023-04-17T10:20:38.206Z,22.70
2023-04-17T10:25:41.535Z,22.90
2023-04-17T10:30:54.027Z,23.10
2023-04-17T10:35:59.153Z,23.30
2023-04-17T10:41:04.951Z,23.50
2023-04-17T10:46:13.569Z,23.80
2023-04-17T10:51:43.946Z,24.00
2023-04-17T10:56:48.572Z,24.30
2023-04-17T11:02:00.926Z,24.60
2023-04-17T11:07:06.288Z,24.80
2023-04-17T11:12:09.554Z,25.10
2023-04-17T11:17:12.957Z,25.30
2023-04-17T11:22:19.643Z,25.50
2023-04-17T11:27:24.366Z,25.80
2023-04-17T11:32:27.752Z,26.00
2023-04-17T11:37:32.376Z,26.20
2023-04-17T11:42:36.008Z,26.20
2023-04-17T11:47:39.870Z,26.20
2023-04-17T11:52:47.297Z,26.30
2023-04-17T11:57:55.241Z,26.50
2023-04-17T12:02:59.637Z,26.60
2023-04-17T12:08:07.341Z,26.70
2023-04-17T12:13:12.264Z,26.80
2023-04-17T12:18:15.564Z,27.00
2023-04-17T12:23:20.732Z,27.10
2023-04-17T12:28:24.360Z,27.30
2023-04-17T12:33:27.646Z,27.40
2023-04-17T12:38:32.991Z,27.50
2023-04-17T12:43:36.233Z,27.50
2023-04-17T12:48:39.944Z,27.50
2023-04-17T12:53:44.796Z,27.50
2023-04-17T12:58:48.490Z,27.60
2023-04-17T13:03:54.135Z,27.70
2023-04-17T13:08:58.992Z,27.70
2023-04-17T13:14:02.246Z,27.80
2023-04-17T13:19:05.633Z,27.80
2023-04-17T13:24:14.566Z,27.70
2023-04-17T13:29:19.554Z,27.50
2023-04-17T13:34:23.296Z,27.30
2023-04-17T13:39:28.009Z,27.00
2023-04-17T13:44:32.187Z,26.70
2023-04-17T13:49:35.477Z,26.60
2023-04-17T13:54:41.427Z,26.40
2023-04-17T13:59:44.812Z,26.20
2023-04-17T14:04:48.264Z,26.20
2023-04-17T14:09:52.963Z,26.20
2023-04-17T14:14:58.144Z,26.10
2023-04-17T14:20:01.645Z,26.10
2023-04-17T14:25:07.020Z,26.00
2023-04-17T14:30:10.862Z,26.00
2023-04-17T14:35:14.484Z,25.90
2023-04-17T14:40:19.288Z,25.70
2023-04-17T14:45:22.594Z,25.50
2023-04-17T14:50:25.973Z,25.30
2023-04-17T14:55:31.025Z,25.00
2023-04-17T15:00:34.441Z,24.80
2023-04-17T15:05:37.981Z,24.60
2023-04-17T15:10:50.815Z,24.40
2023-04-17T15:15:55.249Z,24.20
2023-04-17T15:20:58.613Z,24.00
2023-04-17T15:26:03.331Z,23.80
2023-04-17T15:31:07.188Z,23.70
2023-04-17T15:36:11.418Z,23.60
2023-04-17T15:41:16.379Z,23.50
2023-04-17T15:46:19.854Z,23.40
2023-04-17T15:51:23.103Z,23.30
2023-04-17T15:56:27.713Z,23.20
2023-04-17T16:01:31.488Z,23.10
2023-04-17T16:06:34.881Z,23.00
2023-04-17T16:11:39.923Z,22.90
2023-04-17T16:16:43.661Z,22.80
2023-04-17T16:21:46.888Z,22.80
2023-04-17T16:26:57.742Z,22.80
2023-04-17T16:32:01.044Z,22.70
2023-04-17T16:37:04.647Z,22.60
2023-04-17T16:42:09.632Z,22.50
2023-04-17T16:47:14.258Z,22.40
2023-04-17T16:52:18.756Z,22.30
2023-04-17T16:57:23.626Z,22.20
2023-04-17T17:02:27.355Z,22.20
2023-04-17T17:07:31.152Z,22.20
2023-04-17T17:12:35.861Z,22.20
2023-04-17T17:17:40.063Z,22.40
2023-04-17T17:22:43.365Z,22.70
2023-04-17T17:27:48.077Z,22.90
2023-04-17T17:32:52.289Z,23.10
2023-04-17T17:37:57.023Z,23.20
2023-04-17T17:43:02.035Z,23.20
2023-04-17T17:48:06.061Z,23.20
2023-04-17T17:53:09.586Z,23.10
2023-04-17T17:58:14.651Z,23.10
2023-04-17T18:03:18.790Z,23.00
2023-04-17T18:08:23.796Z,22.80
2023-04-17T18:13:29.120Z,22.70
2023-04-17T18:18:33.801Z,22.60
2023-04-17T18:23:37.764Z,22.50
2023-04-17T18:28:43.864Z,22.40
2023-04-17T18:33:48.227Z,22.30
2023-04-17T18:38:53.393Z,22.20
2023-04-17T18:44:00.229Z,22.10
2023-04-17T18:49:04.509Z,22.00
2023-04-17T18:54:08.918Z,22.00
2023-04-17T18:59:15.510Z,21.90
2023-04-17T19:04:20.326Z,21.70
2023-04-17T19:09:24.143Z,21.70
2023-04-17T19:14:32.681Z,21.50
2023-04-17T19:19:36.712Z,21.50
2023-04-17T19:24:42.939Z,21.40
2023-04-17T19:29:48.150Z,21.30
2023-04-17T19:34:52.228Z,21.20
2023-04-17T19:39:56.826Z,21.10
2023-04-17T19:45:02.921Z,21.00
2023-04-17T19:50:10.001Z,20.90
2023-04-17T19:55:14.861Z,20.90
2023-04-17T20:00:21.267Z,20.80
2023-04-17T20:05:25.242Z,20.80
2023-04-17T20:10:29.205Z,20.70
2023-04-17T20:15:34.153Z,20.60
2023-04-17T20:20:38.195Z,20.60
2023-04-17T20:25:41.600Z,20.50
2023-04-17T20:30:46.610Z,20.40
2023-04-17T20:35:50.664Z,20.40
2023-04-17T20:40:54.113Z,20.30
2023-04-17T20:45:59.929Z,20.30
2023-04-17T20:51:05.892Z,20.30
2023-04-17T20:56:09.492Z,20.20
2023-04-17T21:01:14.197Z,20.20
2023-04-17T21:06:17.862Z,20.10
2023-04-17T21:11:22.454Z,20.10
2023-04-17T21:16:27.420Z,20.10
2023-04-17T21:21:30.812Z,20.00
2023-04-17T21:26:34.119Z,20.00
2023-04-17T21:31:39.196Z,20.00
2023-04-17T21:36:42.434Z,20.00
2023-04-17T21:41:45.832Z,19.90
2023-04-17T21:46:50.587Z,19.90
2023-04-17T21:51:53.832Z,19.90
2023-04-17T21:56:57.087Z,19.90
2023-04-17T22:02:01.874Z,19.80
2023-04-17T22:07:05.706Z,19.80
2023-04-17T22:12:12.763Z,19.80
2023-04-17T22:17:17.352Z,19.80
2023-04-17T22:22:20.596Z,19.80
2023-04-17T22:27:24.132Z,19.80
2023-04-17T22:32:28.824Z,19.80
2023-04-17T22:37:32.053Z,19.80
2023-04-17T22:42:35.282Z,19.80
2023-04-17T22:47:40.010Z,19.80
2023-04-17T22:52:43.186Z,19.80
2023-04-17T22:57:46.572Z,19.70
2023-04-17T23:02:51.304Z,19.70
2023-04-17T23:07:54.560Z,19.70
2023-04-17T23:12:57.695Z,19.70
2023-04-17T23:18:02.459Z,19.70
2023-04-17T23:23:11.988Z,19.70
2023-04-17T23:28:15.226Z,19.70
2023-04-17T23:33:19.841Z,19.70
2023-04-17T23:38:23.107Z,19.70
2023-04-17T23:43:26.340Z,19.70
2023-04-17T23:48:31.057Z,19.70
2023-04-17T23:53:34.249Z,19.70
2023-04-17T23:58:37.452Z,19.60
